createdAt,value
2022-08-17T00:00:43.800Z,100758.09
2022-08-17T00:03:20.960Z,100744.63
2022-08-17T00:06:00.170Z,100750.50
2022-08-17T00:08:32.877Z,100760.25
2022-08-17T00:11:02.389Z,100754.44
2022-08-17T00:13:37.789Z,100749.47
2022-08-17T00:16:11.516Z,100761.72
2022-08-17T00:19:06.357Z,100764.25
2022-08-17T00:22:28.666Z,100767.34
2022-08-17T00:24:19.591Z,100769.38
2022-08-17T00:26:47.693Z,100772.19
2022-08-17T00:29:20.040Z,100784.16
2022-08-17T00:31:49.897Z,100778.97
2022-08-17T00:34:36.702Z,100779.56
2022-08-17T00:37:05.455Z,100782.09
2022-08-17T00:39:34.190Z,100779.75
2022-08-17T00:42:02.397Z,100783.84
2022-08-17T00:44:31.248Z,100775.06
2022-08-17T00:46:59.285Z,100766.47
2022-08-17T00:49:29.967Z,100773.69
2022-08-17T00:52:10.859Z,100770.91
2022-08-17T00:54:43.865Z,100768.53
2022-08-17T00:57:29.359Z,100774.56
2022-08-17T01:00:06.938Z,100762.38
2022-08-17T01:02:42.101Z,100754.84
2022-08-17T01:05:17.216Z,100760.00
2022-08-17T01:07:51.133Z,100751.44
2022-08-17T01:11:00.533Z,100740.81
2022-08-17T01:13:13.876Z,100747.72
2022-08-17T01:15:47.717Z,100745.06
2022-08-17T01:18:16.948Z,100735.47
2022-08-17T01:20:51.071Z,100735.06
2022-08-17T01:23:23.648Z,100743.28
2022-08-17T01:25:56.752Z,100736.47
2022-08-17T01:28:36.389Z,100746.16
2022-08-17T01:31:17.337Z,100740.56
2022-08-17T01:34:03.866Z,100737.00
2022-08-17T01:36:32.695Z,100724.44
2022-08-17T01:39:01.061Z,100721.44
2022-08-17T01:41:29.818Z,100726.78
2022-08-17T01:44:04.726Z,100723.53
2022-08-17T01:46:36.454Z,100727.19
2022-08-17T01:49:10.581Z,100728.94
2022-08-17T01:51:39.311Z,100736.56
2022-08-17T01:54:13.148Z,100739.03
2022-08-17T01:56:47.563Z,100739.00
2022-08-17T01:59:18.785Z,100737.25
2022-08-17T02:01:48.465Z,100739.47
2022-08-17T02:04:17.462Z,100731.72
2022-08-17T02:06:53.074Z,100728.78
2022-08-17T02:09:26.045Z,100728.47
2022-08-17T02:11:56.721Z,100734.75
2022-08-17T02:14:26.058Z,100739.94
2022-08-17T02:16:54.808Z,100734.97
2022-08-17T02:19:23.401Z,100730.47
2022-08-17T02:21:53.663Z,100729.09
2022-08-17T02:24:59.843Z,100731.38
2022-08-17T02:27:16.403Z,100724.34
2022-08-17T02:29:44.893Z,100720.94
2022-08-17T02:32:27.171Z,100725.13
2022-08-17T02:34:58.373Z,100724.81
2022-08-17T02:37:31.488Z,100721.34
2022-08-17T02:40:00.790Z,100722.91
2022-08-17T02:42:35.909Z,100727.72
2022-08-17T02:45:06.856Z,100730.31
2022-08-17T02:47:36.120Z,100730.81
2022-08-17T02:50:06.948Z,100729.31
2022-08-17T02:52:42.646Z,100732.50
2022-08-17T02:55:30.152Z,100733.78
2022-08-17T02:57:58.815Z,100734.44
2022-08-17T03:00:34.450Z,100730.31
2022-08-17T03:03:05.786Z,100731.38
2022-08-17T03:05:35.922Z,100731.00
2022-08-17T03:08:06.288Z,100725.69
2022-08-17T03:10:35.321Z,100725.22
2022-08-17T03:13:04.775Z,100729.88
2022-08-17T03:15:35.488Z,100735.84
2022-08-17T03:18:06.206Z,100734.84
2022-08-17T03:20:37.345Z,100742.28
2022-08-17T03:23:07.276Z,100736.25
2022-08-17T03:25:44.945Z,100743.44
2022-08-17T03:28:14.259Z,100737.31
2022-08-17T03:30:42.972Z,100735.00
2022-08-17T03:33:11.534Z,100735.78
2022-08-17T03:35:41.362Z,100738.19
2022-08-17T03:38:11.936Z,100740.06
2022-08-17T03:40:58.108Z,100737.19
2022-08-17T03:43:34.302Z,100740.75
2022-08-17T03:46:27.845Z,100743.84
2022-08-17T03:49:19.597Z,100735.31
2022-08-17T03:52:06.232Z,100739.19
2022-08-17T03:54:53.301Z,100742.78
2022-08-17T03:57:23.167Z,100738.06
2022-08-17T03:59:52.234Z,100740.50
2022-08-17T04:02:39.419Z,100736.22
2022-08-17T04:05:09.740Z,100740.50
2022-08-17T04:07:38.043Z,100744.94
2022-08-17T04:10:06.970Z,100747.25
2022-08-17T04:12:51.791Z,100746.50
2022-08-17T04:15:20.183Z,100742.94
2022-08-17T04:17:48.835Z,100738.75
2022-08-17T04:20:18.888Z,100750.06
2022-08-17T04:23:18.310Z,100742.81
2022-08-17T04:25:49.601Z,100746.00
2022-08-17T04:28:20.172Z,100740.25
2022-08-17T04:30:48.604Z,100735.63
2022-08-17T04:33:20.228Z,100739.94
2022-08-17T04:35:50.866Z,100742.72
2022-08-17T04:38:22.735Z,100745.72
2022-08-17T04:41:10.881Z,100748.91
2022-08-17T04:43:43.102Z,100753.72
2022-08-17T04:46:17.958Z,100756.50
2022-08-17T04:48:50.787Z,100747.16
2022-08-17T04:51:29.170Z,100758.78
2022-08-17T04:54:19.340Z,100766.75
2022-08-17T04:56:48.166Z,100764.69
2022-08-17T04:59:23.128Z,100756.53
2022-08-17T05:01:52.498Z,100762.38
2022-08-17T05:04:34.050Z,100757.38
2022-08-17T05:07:04.874Z,100758.50
2022-08-17T05:09:34.915Z,100759.84
2022-08-17T05:12:04.701Z,100767.91
2022-08-17T05:14:33.898Z,100765.22
2022-08-17T05:17:09.412Z,100771.16
2022-08-17T05:19:39.394Z,100765.22
2022-08-17T05:22:08.146Z,100768.84
2022-08-17T05:24:42.644Z,100762.56
2022-08-17T05:27:23.475Z,100760.94
2022-08-17T05:29:51.883Z,100771.66
2022-08-17T05:32:39.110Z,100771.34
2022-08-17T05:35:11.290Z,100767.13
2022-08-17T05:37:41.163Z,100773.03
2022-08-17T05:40:11.788Z,100770.06
2022-08-17T05:42:40.190Z,100776.28
2022-08-17T05:45:09.679Z,100782.25
2022-08-17T05:47:41.498Z,100781.38
2022-08-17T05:50:13.828Z,100778.91
2022-08-17T05:53:19.539Z,100778.19
2022-08-17T05:56:29.703Z,100772.44
2022-08-17T05:59:31.281Z,100767.06
2022-08-17T06:02:16.599Z,100769.94
2022-08-17T06:05:03.183Z,100766.53
2022-08-17T06:07:58.009Z,100763.00
2022-08-17T06:11:06.016Z,100765.09
2022-08-17T06:14:11.875Z,100764.47
2022-08-17T06:16:45.317Z,100773.47
2022-08-17T06:19:24.532Z,100769.19
2022-08-17T06:21:55.630Z,100768.09
2022-08-17T06:24:24.148Z,100759.34
2022-08-17T06:26:53.230Z,100760.00
2022-08-17T06:29:41.810Z,100754.25
2022-08-17T06:32:13.190Z,100745.28
2022-08-17T06:34:43.953Z,100756.88
2022-08-17T06:37:56.016Z,100761.06
2022-08-17T06:40:56.633Z,100766.28
2022-08-17T06:43:33.399Z,100765.19
2022-08-17T06:46:17.201Z,100767.91
2022-08-17T06:49:08.924Z,100750.31
2022-08-17T06:51:53.463Z,100741.75
2022-08-17T06:54:51.274Z,100764.88
2022-08-17T06:57:25.476Z,100777.09
2022-08-17T07:00:16.921Z,100769.22
2022-08-17T07:03:07.274Z,100764.75
2022-08-17T07:05:54.202Z,100761.38
2022-08-17T07:08:48.350Z,100762.84
2022-08-17T07:11:30.411Z,100757.72
2022-08-17T07:14:29.852Z,100773.31
2022-08-17T07:17:04.947Z,100767.91
2022-08-17T07:19:35.403Z,100748.22
2022-08-17T07:22:30.808Z,100727.25
2022-08-17T07:25:20.869Z,100732.19
2022-08-17T07:27:53.055Z,100750.38
2022-08-17T07:30:23.335Z,100756.38
2022-08-17T07:32:57.677Z,100748.75
2022-08-17T07:35:37.534Z,100748.50
2022-08-17T07:38:26.805Z,100756.75
2022-08-17T07:41:02.329Z,100762.53
2022-08-17T07:43:34.548Z,100785.03
2022-08-17T07:46:30.510Z,100777.72
2022-08-17T07:49:03.643Z,100742.84
2022-08-17T07:51:37.613Z,100741.84
2022-08-17T07:54:23.536Z,100762.25
2022-08-17T07:57:09.119Z,100771.56
2022-08-17T07:59:41.276Z,100800.13
2022-08-17T08:02:15.119Z,100803.50
2022-08-17T08:05:30.008Z,100805.16
2022-08-17T08:08:42.614Z,100729.94
2022-08-17T08:11:28.684Z,100727.03
2022-08-17T08:14:29.805Z,100729.16
2022-08-17T08:17:06.414Z,100722.00
2022-08-17T08:19:39.047Z,100735.66
2022-08-17T08:22:21.300Z,100767.78
2022-08-17T08:25:22.515Z,100746.06
